メインページ
METAR-TAF:

METAR-TAF

空港 :

コペンハーゲン, デンマーク

コペンハーゲン空港

緯度: 55-37N, 経度: 012-39E, 海抜: 5m

現時点の気象観測

当レポートは17分前の15:20(UTC)に作成
西/南西の風 20kt、最大31ktの突風を伴う
気温 15°C
湿度 51%
気圧 1008 hPa
視程10km以上
1,500メートル以下は雲なし、積乱雲なし

METAR: EKCH 231520Z 25020G31KT CAVOK 15/05 Q1008 NOSIG

時間: 17:37 (15:37 UTC)

予報

当レポートは4時間20分前の11:17(UTC)に作成
予報は23日の 12時(UTC)から 24日の 12時(UTC)まで有効
西/南西の風 15kt
視程10km以上
高度3000ftの雲は散在している
23日の 12時(UTC)から 23日の 18時(UTC)まで一時的に
西の風 18kt、最大30ktの突風を伴う
高度2500ftの雲は散在している, 塔状積雲.
24日の 00時(UTC)から 24日の 03時(UTC)まで一時的に
高度1000ftの千切れ雲あり
24日の 07時(UTC)から 24日の 09時(UTC)まで徐々に
高度1000ftの千切れ雲あり
小雨
24日の 09時(UTC)から 24日の 12時(UTC)まで徐々に
南西の風 15kt、最大25ktの突風を伴う
高度3000ftの雲は散在している

TAF: EKCH 231117Z 2312/2412 25015KT 9999 SCT030 TEMPO 2312/2318 27018G30KT SCT025TCU TEMPO 2400/2403 BKN010 BECMG 2407/2409 -RA BKN010 BECMG 2409/2412 23015G25KT NSW SCT030

4,000以上の空港の気象観測と天気予報(METAR報とTAF報)

利用可能な観測所は地図上に黄色い丸と赤い丸で示す。

丸の上にカーソルを重ねると観測所名を参照できる。

次にクリックすると気象観測と天気予報を参照できる。

マップの切り替え:黒色「×」印の緑ボタンをクリックして拡大、「-」印の緑ボタンをクリックして縮小、緑色の三角印をクリックして隣りの地図に切り替え


METAR-TAF: